createdAt,value
2023-02-11T00:00:11.887Z,122.47
2023-02-11T00:00:44.575Z,120.05
2023-02-11T00:01:30.835Z,123.60
2023-02-11T00:02:05.099Z,133.05
2023-02-11T00:02:37.543Z,121.85
2023-02-11T00:03:09.995Z,118.65
2023-02-11T00:03:42.362Z,118.38
2023-02-11T00:04:14.773Z,111.15
2023-02-11T00:04:47.605Z,108.35
2023-02-11T00:05:19.966Z,111.32
2023-02-11T00:06:02.283Z,111.82
2023-02-11T00:06:35.252Z,110.82
2023-02-11T00:07:07.540Z,106.30
2023-02-11T00:07:40.294Z,98.50
2023-02-11T00:08:17.212Z,108.20
2023-02-11T00:08:49.961Z,103.25
2023-02-11T00:09:22.407Z,97.55
2023-02-11T00:09:54.853Z,101.20
2023-02-11T00:10:27.604Z,99.22
2023-02-11T00:10:59.964Z,93.65
2023-02-11T00:11:32.677Z,100.57
2023-02-11T00:12:05.301Z,92.90
2023-02-11T00:12:38.487Z,96.57
2023-02-11T00:13:10.885Z,95.72
2023-02-11T00:13:44.190Z,97.90
2023-02-11T00:14:16.501Z,93.03
2023-02-11T00:14:48.919Z,96.30
2023-02-11T00:15:21.635Z,88.97
2023-02-11T00:15:54.604Z,100.85
2023-02-11T00:16:27.267Z,94.28
2023-02-11T00:16:59.870Z,94.40
2023-02-11T00:17:32.933Z,93.45
2023-02-11T00:18:05.247Z,93.20
2023-02-11T00:18:37.781Z,91.38
2023-02-11T00:19:10.058Z,90.63
2023-02-11T00:19:42.526Z,91.13
2023-02-11T00:20:15.128Z,98.65
2023-02-11T00:20:47.562Z,92.30
2023-02-11T00:21:21.531Z,89.45
2023-02-11T00:21:53.817Z,99.40
2023-02-11T00:22:26.218Z,96.15
2023-02-11T00:22:58.583Z,99.45
2023-02-11T00:23:31.358Z,96.72
2023-02-11T00:24:04.211Z,85.35
2023-02-11T00:24:36.798Z,95.63
2023-02-11T00:25:09.266Z,94.32
2023-02-11T00:25:42.186Z,92.80
2023-02-11T00:26:22.252Z,89.13
2023-02-11T00:26:54.603Z,89.05
2023-02-11T00:27:27.015Z,91.78
2023-02-11T00:27:59.527Z,90.20
2023-02-11T00:28:32.064Z,86.28
2023-02-11T00:29:04.705Z,84.32
2023-02-11T00:29:37.783Z,97.55
2023-02-11T00:30:11.061Z,91.75
2023-02-11T00:30:44.074Z,89.13
2023-02-11T00:31:17.228Z,89.30
2023-02-11T00:31:49.775Z,95.30
2023-02-11T00:32:22.135Z,102.18
2023-02-11T00:32:55.971Z,87.40
2023-02-11T00:33:28.351Z,97.72
2023-02-11T00:34:00.762Z,93.20
2023-02-11T00:34:33.736Z,86.32
2023-02-11T00:35:07.952Z,94.32
2023-02-11T00:35:40.285Z,90.35
2023-02-11T00:36:17.273Z,91.85
2023-02-11T00:36:52.325Z,90.78
2023-02-11T00:37:24.782Z,94.85
2023-02-11T00:37:57.353Z,87.60
2023-02-11T00:38:29.670Z,95.22
2023-02-11T00:39:02.587Z,92.45
2023-02-11T00:39:34.877Z,92.03
2023-02-11T00:40:09.095Z,86.10
2023-02-11T00:40:41.447Z,90.65
2023-02-11T00:41:14.840Z,95.97
2023-02-11T00:41:47.143Z,85.93
2023-02-11T00:42:19.550Z,93.63
2023-02-11T00:42:52.208Z,88.93
2023-02-11T00:43:24.718Z,88.07
2023-02-11T00:43:57.566Z,94.80
2023-02-11T00:44:29.871Z,88.13
2023-02-11T00:45:02.363Z,89.75
2023-02-11T00:45:34.997Z,87.22
2023-02-11T00:46:07.790Z,93.72
2023-02-11T00:46:40.191Z,92.95
2023-02-11T00:47:15.792Z,89.43
2023-02-11T00:47:49.496Z,90.38
2023-02-11T00:48:21.850Z,96.07
2023-02-11T00:48:57.978Z,85.22
2023-02-11T00:49:30.794Z,84.22
2023-02-11T00:50:05.428Z,88.57
2023-02-11T00:50:37.777Z,84.07
2023-02-11T00:51:10.850Z,81.25
2023-02-11T00:51:43.123Z,88.70
2023-02-11T00:52:15.715Z,93.13
2023-02-11T00:52:48.160Z,88.85
2023-02-11T00:53:20.466Z,97.22
2023-02-11T00:53:53.008Z,100.35
2023-02-11T00:54:25.281Z,103.22
2023-02-11T00:54:57.649Z,103.03
2023-02-11T00:55:29.900Z,105.80
2023-02-11T00:56:02.332Z,118.25
2023-02-11T00:56:34.777Z,107.13
2023-02-11T00:57:07.089Z,114.57
2023-02-11T00:57:39.535Z,113.53
2023-02-11T00:58:11.846Z,123.40
2023-02-11T00:58:44.172Z,119.60
2023-02-11T00:59:16.633Z,129.05
2023-02-11T00:59:50.795Z,123.18
2023-02-11T01:00:24.471Z,130.32
2023-02-11T01:00:57.530Z,121.20
2023-02-11T01:01:30.774Z,123.85
2023-02-11T01:02:03.122Z,112.68
2023-02-11T01:02:35.466Z,116.43
2023-02-11T01:03:08.939Z,106.45
2023-02-11T01:03:41.441Z,115.30
2023-02-11T01:04:13.923Z,112.70
2023-02-11T01:04:46.669Z,112.25
2023-02-11T01:05:19.843Z,114.93
2023-02-11T01:05:53.988Z,118.07
2023-02-11T01:06:26.255Z,109.15
2023-02-11T01:06:58.622Z,110.15
2023-02-11T01:07:31.560Z,109.47
2023-02-11T01:08:04.014Z,108.53
2023-02-11T01:08:37.048Z,115.38
2023-02-11T01:09:09.387Z,104.88
2023-02-11T01:09:41.671Z,117.68
2023-02-11T01:10:14.054Z,103.65
2023-02-11T01:10:53.873Z,106.75
2023-02-11T01:11:26.456Z,107.72
2023-02-11T01:11:59.114Z,103.68
2023-02-11T01:12:32.215Z,107.50
2023-02-11T01:13:06.676Z,108.47
2023-02-11T01:13:39.018Z,111.75
2023-02-11T01:14:11.300Z,102.78
2023-02-11T01:14:43.835Z,99.95
2023-02-11T01:15:17.484Z,104.72
2023-02-11T01:15:50.194Z,109.95
2023-02-11T01:16:23.322Z,103.70
2023-02-11T01:16:57.841Z,101.00
2023-02-11T01:17:30.216Z,108.03
2023-02-11T01:18:02.570Z,104.90
2023-02-11T01:18:34.918Z,116.63
2023-02-11T01:19:07.264Z,99.78
2023-02-11T01:19:39.815Z,100.63
2023-02-11T01:20:17.488Z,107.72
2023-02-11T01:20:51.487Z,106.65
2023-02-11T01:21:23.871Z,101.15
2023-02-11T01:21:56.923Z,103.95
2023-02-11T01:22:29.301Z,100.38
2023-02-11T01:23:01.582Z,101.57
2023-02-11T01:23:34.064Z,104.82
2023-02-11T01:24:06.801Z,99.20
2023-02-11T01:24:39.172Z,103.47
2023-02-11T01:25:13.179Z,103.80
2023-02-11T01:25:46.147Z,95.22
2023-02-11T01:26:18.541Z,98.65
2023-02-11T01:26:50.850Z,97.88
2023-02-11T01:27:23.245Z,101.10
2023-02-11T01:27:55.647Z,96.25
2023-02-11T01:28:29.379Z,96.03
2023-02-11T01:29:01.873Z,95.10
2023-02-11T01:29:34.218Z,92.13
2023-02-11T01:30:08.007Z,95.15
2023-02-11T01:30:40.407Z,97.88
2023-02-11T01:31:12.774Z,95.53
2023-02-11T01:31:45.184Z,98.07
2023-02-11T01:32:17.587Z,95.60
2023-02-11T01:32:50.173Z,88.80
2023-02-11T01:33:22.952Z,97.85
2023-02-11T01:33:55.294Z,89.00
2023-02-11T01:34:27.893Z,90.22
2023-02-11T01:35:00.277Z,93.95
2023-02-11T01:35:32.831Z,90.97
2023-02-11T01:36:06.410Z,84.05
2023-02-11T01:36:38.984Z,89.88
2023-02-11T01:37:11.355Z,94.65
2023-02-11T01:37:44.015Z,96.65
2023-02-11T01:38:17.777Z,93.72
2023-02-11T01:38:51.157Z,97.88
2023-02-11T01:39:26.487Z,85.88
2023-02-11T01:39:59.231Z,96.65
2023-02-11T01:40:31.689Z,93.03
2023-02-11T01:41:08.502Z,94.80
2023-02-11T01:41:43.281Z,89.10
2023-02-11T01:42:19.719Z,89.82
2023-02-11T01:42:52.389Z,85.03
2023-02-11T01:43:26.385Z,90.95
2023-02-11T01:43:58.965Z,92.80
2023-02-11T01:44:36.357Z,89.95
2023-02-11T01:45:27.022Z,95.45
2023-02-11T01:45:59.455Z,87.00
2023-02-11T01:46:36.387Z,86.68
2023-02-11T01:47:08.777Z,88.50
2023-02-11T01:47:41.133Z,91.82
2023-02-11T01:48:14.915Z,91.95
2023-02-11T01:48:57.773Z,93.10
2023-02-11T01:49:36.554Z,85.68
2023-02-11T01:50:08.935Z,93.85
2023-02-11T01:50:43.027Z,92.97
2023-02-11T01:51:22.850Z,91.65
2023-02-11T01:51:58.667Z,89.47
2023-02-11T01:52:33.856Z,92.97
2023-02-11T01:53:29.541Z,90.35
2023-02-11T01:54:21.277Z,85.53
2023-02-11T01:55:13.542Z,86.95
2023-02-11T01:56:04.589Z,81.00
2023-02-11T01:56:57.090Z,81.22
2023-02-11T01:57:31.280Z,77.95
2023-02-11T01:58:05.232Z,89.57
2023-02-11T01:58:41.427Z,84.47
2023-02-11T01:59:16.726Z,90.85
2023-02-11T01:59:49.034Z,88.57
2023-02-11T02:00:38.450Z,89.93
2023-02-11T02:01:13.443Z,86.80
2023-02-11T02:01:49.257Z,84.93
2023-02-11T02:02:23.707Z,86.07
2023-02-11T02:03:02.923Z,84.10
2023-02-11T02:03:37.600Z,80.72
2023-02-11T02:04:11.941Z,79.55
2023-02-11T02:04:53.139Z,88.00
2023-02-11T02:05:33.745Z,85.03
2023-02-11T02:06:38.762Z,86.82
2023-02-11T02:07:18.014Z,86.75
2023-02-11T02:08:03.756Z,85.95
2023-02-11T02:08:39.364Z,92.20
2023-02-11T02:09:17.770Z,86.95
2023-02-11T02:09:54.018Z,90.07
2023-02-11T02:10:27.420Z,91.30
2023-02-11T02:11:01.051Z,89.55
2023-02-11T02:11:33.491Z,90.78
2023-02-11T02:12:06.420Z,98.78
2023-02-11T02:12:38.825Z,90.72
2023-02-11T02:13:11.213Z,88.22
2023-02-11T02:13:43.539Z,85.53
2023-02-11T02:14:15.861Z,91.55
2023-02-11T02:14:48.259Z,98.25
2023-02-11T02:15:29.064Z,94.70
2023-02-11T02:16:02.854Z,83.40
2023-02-11T02:16:38.022Z,88.07
2023-02-11T02:17:13.826Z,86.40
2023-02-11T02:17:52.984Z,89.63
2023-02-11T02:18:31.175Z,91.68
2023-02-11T02:19:12.905Z,84.40
2023-02-11T02:20:14.882Z,86.25
2023-02-11T02:20:51.093Z,84.80
2023-02-11T02:21:47.035Z,87.70
2023-02-11T02:22:25.643Z,90.57
2023-02-11T02:23:16.798Z,91.72
2023-02-11T02:23:51.810Z,85.45
2023-02-11T02:24:24.111Z,87.50
2023-02-11T02:25:01.227Z,90.93
2023-02-11T02:25:33.587Z,87.95
2023-02-11T02:26:24.101Z,87.88
2023-02-11T02:27:02.404Z,95.85
2023-02-11T02:27:46.922Z,85.32
2023-02-11T02:28:25.805Z,83.45
2023-02-11T02:29:14.690Z,90.78
2023-02-11T02:29:55.275Z,91.22
2023-02-11T02:30:46.139Z,85.13
2023-02-11T02:31:29.812Z,86.95
2023-02-11T02:32:10.955Z,86.05
2023-02-11T02:33:07.909Z,84.70
2023-02-11T02:33:45.620Z,76.43
2023-02-11T02:34:38.382Z,80.50
2023-02-11T02:35:15.960Z,88.50
2023-02-11T02:35:52.537Z,79.50
2023-02-11T02:36:32.285Z,79.57
2023-02-11T02:37:17.290Z,81.75
2023-02-11T02:37:53.088Z,82.53
2023-02-11T02:38:25.392Z,86.97
2023-02-11T02:38:59.295Z,80.07
2023-02-11T02:39:35.958Z,91.65
2023-02-11T02:40:11.727Z,92.03
2023-02-11T02:40:48.863Z,88.05
2023-02-11T02:41:25.486Z,91.28
2023-02-11T02:41:58.264Z,82.30
2023-02-11T02:42:31.252Z,88.30
2023-02-11T02:43:03.771Z,85.57
2023-02-11T02:43:37.630Z,85.07
2023-02-11T02:44:10.263Z,95.82
2023-02-11T02:44:48.443Z,86.65
2023-02-11T02:45:20.789Z,85.55
2023-02-11T02:45:54.166Z,86.60
2023-02-11T02:46:28.419Z,84.03
2023-02-11T02:47:00.978Z,89.53
2023-02-11T02:47:33.310Z,82.35
2023-02-11T02:48:05.660Z,85.38
2023-02-11T02:48:38.172Z,85.00
2023-02-11T02:49:14.181Z,84.07
2023-02-11T02:49:46.512Z,85.88
2023-02-11T02:50:21.851Z,91.55
2023-02-11T02:51:02.133Z,86.78
2023-02-11T02:51:43.600Z,81.80
2023-02-11T02:52:27.391Z,83.53
2023-02-11T02:53:02.620Z,80.60
2023-02-11T02:53:55.334Z,88.82
2023-02-11T02:54:47.840Z,82.40
2023-02-11T02:55:29.256Z,76.68
2023-02-11T02:56:01.538Z,85.03
2023-02-11T02:56:33.941Z,78.15
2023-02-11T02:57:38.712Z,82.75
2023-02-11T02:58:19.980Z,80.30
2023-02-11T02:59:02.643Z,80.53
2023-02-11T02:59:53.713Z,77.72
2023-02-11T03:00:29.927Z,74.45
2023-02-11T03:01:22.161Z,79.93
2023-02-11T03:02:00.684Z,80.32
2023-02-11T03:02:50.993Z,78.88
2023-02-11T03:03:41.755Z,77.30
2023-02-11T03:04:22.985Z,75.38
2023-02-11T03:04:55.424Z,76.63
2023-02-11T03:05:33.799Z,81.72
2023-02-11T03:06:15.330Z,86.07
2023-02-11T03:06:54.952Z,81.60
2023-02-11T03:07:40.341Z,79.30
2023-02-11T03:08:16.854Z,79.80
2023-02-11T03:09:06.123Z,88.25
2023-02-11T03:09:42.091Z,79.13
2023-02-11T03:10:26.174Z,76.65
2023-02-11T03:10:59.398Z,73.72
2023-02-11T03:11:32.092Z,86.03
2023-02-11T03:12:04.706Z,86.22
2023-02-11T03:12:38.259Z,83.95
2023-02-11T03:13:11.729Z,86.15
2023-02-11T03:13:44.587Z,85.32
2023-02-11T03:14:18.464Z,88.90
2023-02-11T03:14:52.142Z,94.80
2023-02-11T03:15:25.992Z,86.63
2023-02-11T03:15:59.809Z,90.30
2023-02-11T03:16:38.243Z,92.97
2023-02-11T03:17:10.755Z,89.30
2023-02-11T03:17:44.501Z,89.38
2023-02-11T03:18:18.872Z,86.53
2023-02-11T03:18:54.075Z,91.05
2023-02-11T03:19:30.871Z,87.28
2023-02-11T03:20:04.888Z,95.22
2023-02-11T03:20:39.473Z,86.40
2023-02-11T03:21:12.436Z,89.72
2023-02-11T03:21:45.651Z,94.25
2023-02-11T03:22:20.956Z,86.13
2023-02-11T03:22:56.154Z,90.03
2023-02-11T03:23:35.655Z,86.65
2023-02-11T03:24:10.951Z,86.75
2023-02-11T03:24:43.434Z,85.32
2023-02-11T03:25:16.101Z,90.68
2023-02-11T03:25:55.915Z,95.70
2023-02-11T03:26:38.116Z,98.15
2023-02-11T03:27:20.630Z,96.72
2023-02-11T03:27:55.920Z,88.40
2023-02-11T03:28:28.290Z,87.88
2023-02-11T03:29:04.070Z,94.63
2023-02-11T03:29:39.746Z,91.45
2023-02-11T03:30:16.781Z,97.28
2023-02-11T03:30:52.628Z,96.28
2023-02-11T03:31:31.699Z,92.88
2023-02-11T03:32:26.752Z,88.35
2023-02-11T03:33:05.793Z,90.43
2023-02-11T03:33:59.579Z,90.25
2023-02-11T03:34:35.996Z,82.72
2023-02-11T03:35:12.096Z,94.72
2023-02-11T03:35:53.628Z,84.82
2023-02-11T03:36:33.485Z,90.28
2023-02-11T03:37:09.061Z,90.15
2023-02-11T03:37:50.888Z,88.90
2023-02-11T03:38:26.237Z,76.30
2023-02-11T03:39:00.409Z,98.88
2023-02-11T03:39:37.430Z,89.47
2023-02-11T03:40:15.274Z,93.80
2023-02-11T03:40:47.830Z,94.60
2023-02-11T03:41:21.882Z,104.55
2023-02-11T03:41:55.941Z,100.82
2023-02-11T03:42:33.476Z,91.45
2023-02-11T03:43:08.584Z,88.65
2023-02-11T03:43:42.845Z,93.57
2023-02-11T03:44:16.217Z,83.82
2023-02-11T03:44:56.616Z,82.43
2023-02-11T03:45:29.440Z,91.55
2023-02-11T03:46:02.693Z,89.75
2023-02-11T03:46:38.239Z,89.78
2023-02-11T03:47:14.377Z,96.82
2023-02-11T03:47:48.955Z,89.50
2023-02-11T03:48:26.359Z,82.30
2023-02-11T03:49:01.282Z,83.38
2023-02-11T03:49:33.872Z,86.60
2023-02-11T03:50:07.338Z,89.97
2023-02-11T03:50:40.501Z,90.05
2023-02-11T03:51:14.474Z,90.15
2023-02-11T03:51:48.219Z,96.40
2023-02-11T03:52:21.781Z,98.35
2023-02-11T03:52:55.274Z,90.45
2023-02-11T03:53:27.672Z,86.15
2023-02-11T03:54:02.153Z,89.78
2023-02-11T03:54:35.468Z,84.70
2023-02-11T03:55:10.003Z,89.57
2023-02-11T03:55:43.716Z,89.88
2023-02-11T03:56:18.007Z,86.78
2023-02-11T03:56:54.122Z,91.43
2023-02-11T03:57:26.696Z,81.82
2023-02-11T03:57:59.179Z,91.47
2023-02-11T03:58:31.575Z,88.43
2023-02-11T03:59:03.875Z,90.85
2023-02-11T03:59:56.083Z,89.15
2023-02-11T04:00:32.156Z,86.82
2023-02-11T04:01:05.425Z,88.88
2023-02-11T04:01:37.786Z,93.10
2023-02-11T04:02:10.089Z,93.13
2023-02-11T04:02:43.120Z,89.45
2023-02-11T04:03:15.924Z,85.30
2023-02-11T04:03:48.290Z,88.03
2023-02-11T04:04:20.875Z,99.72
2023-02-11T04:04:53.241Z,92.60
2023-02-11T04:05:26.049Z,91.15
2023-02-11T04:05:58.626Z,93.28
2023-02-11T04:06:30.966Z,91.03
2023-02-11T04:07:03.264Z,87.18
2023-02-11T04:07:35.732Z,102.82
2023-02-11T04:08:08.403Z,90.53
2023-02-11T04:08:40.939Z,97.00
2023-02-11T04:09:13.245Z,85.47
2023-02-11T04:09:45.604Z,95.28
2023-02-11T04:10:18.185Z,92.97
2023-02-11T04:10:50.840Z,96.03
2023-02-11T04:11:23.167Z,93.60
2023-02-11T04:11:55.462Z,97.20
2023-02-11T04:12:27.940Z,101.57
2023-02-11T04:13:00.282Z,96.00
2023-02-11T04:13:33.699Z,96.00
2023-02-11T04:14:06.097Z,94.03
2023-02-11T04:14:38.538Z,90.75
2023-02-11T04:15:10.981Z,98.88
2023-02-11T04:15:43.449Z,95.80
2023-02-11T04:16:15.736Z,96.43
2023-02-11T04:16:48.176Z,96.65
2023-02-11T04:17:20.711Z,94.80
2023-02-11T04:17:56.076Z,93.93
2023-02-11T04:18:28.571Z,87.78
2023-02-11T04:19:02.106Z,98.40
2023-02-11T04:19:34.794Z,91.13
2023-02-11T04:20:07.278Z,96.63
2023-02-11T04:20:39.577Z,93.68
2023-02-11T04:21:11.890Z,89.38
2023-02-11T04:21:44.234Z,97.13
2023-02-11T04:22:16.572Z,94.53
2023-02-11T04:22:48.928Z,87.82
2023-02-11T04:23:21.363Z,87.70
2023-02-11T04:23:53.719Z,95.22
2023-02-11T04:24:26.102Z,93.85
2023-02-11T04:24:58.584Z,90.05
2023-02-11T04:25:30.943Z,91.60
2023-02-11T04:26:03.702Z,95.63
2023-02-11T04:26:36.104Z,92.45
2023-02-11T04:27:08.409Z,90.57
2023-02-11T04:27:40.839Z,86.65
2023-02-11T04:28:13.611Z,100.78
2023-02-11T04:28:46.122Z,93.63
2023-02-11T04:29:19.228Z,93.65
2023-02-11T04:29:51.674Z,88.63
2023-02-11T04:30:23.985Z,90.28
2023-02-11T04:30:56.655Z,90.47
2023-02-11T04:31:29.188Z,86.55
2023-02-11T04:32:01.830Z,93.20
2023-02-11T04:32:34.298Z,86.68
2023-02-11T04:33:06.624Z,86.43
2023-02-11T04:33:39.068Z,96.05
2023-02-11T04:34:11.582Z,95.85
2023-02-11T04:34:43.915Z,92.18
2023-02-11T04:35:16.722Z,93.85
2023-02-11T04:35:49.588Z,89.13
2023-02-11T04:36:22.132Z,95.50
2023-02-11T04:36:54.505Z,104.22
2023-02-11T04:37:26.780Z,93.32
2023-02-11T04:37:59.230Z,94.70
2023-02-11T04:38:31.547Z,95.15
2023-02-11T04:39:04.516Z,89.90
2023-02-11T04:39:36.850Z,90.03
2023-02-11T04:40:09.476Z,90.35
2023-02-11T04:40:42.179Z,98.88
2023-02-11T04:41:14.656Z,98.60
2023-02-11T04:41:47.359Z,95.47
2023-02-11T04:42:19.622Z,86.47
2023-02-11T04:42:51.941Z,91.53
2023-02-11T04:43:24.357Z,85.22
2023-02-11T04:43:56.711Z,96.07
2023-02-11T04:44:29.218Z,88.45
2023-02-11T04:45:01.993Z,93.90
2023-02-11T04:45:34.378Z,88.75
2023-02-11T04:46:06.783Z,87.85
2023-02-11T04:46:39.483Z,88.75
2023-02-11T04:47:13.677Z,93.18
2023-02-11T04:47:46.399Z,87.90
2023-02-11T04:48:19.047Z,89.35
2023-02-11T04:48:51.437Z,94.78
2023-02-11T04:49:23.725Z,93.55
2023-02-11T04:49:56.115Z,89.75
2023-02-11T04:50:28.428Z,91.20
2023-02-11T04:51:01.602Z,92.10
2023-02-11T04:51:33.926Z,96.57
2023-02-11T04:52:06.354Z,97.60
2023-02-11T04:52:38.799Z,92.82
2023-02-11T04:53:11.314Z,101.53
2023-02-11T04:53:43.745Z,98.22
2023-02-11T04:54:16.448Z,108.15
2023-02-11T04:54:48.784Z,104.97
2023-02-11T04:55:21.301Z,114.60
2023-02-11T04:55:53.962Z,106.53
2023-02-11T04:56:26.237Z,112.55
2023-02-11T04:56:58.821Z,104.95
2023-02-11T04:57:31.227Z,108.50
2023-02-11T04:58:03.560Z,117.05
2023-02-11T04:58:36.025Z,128.32
2023-02-11T04:59:08.606Z,112.25
2023-02-11T04:59:41.432Z,112.50
2023-02-11T05:00:14.596Z,123.00
2023-02-11T05:00:47.312Z,128.07
2023-02-11T05:01:19.816Z,126.65
2023-02-11T05:01:52.317Z,121.93
2023-02-11T05:02:25.120Z,113.20
2023-02-11T05:02:57.482Z,112.45
2023-02-11T05:03:30.274Z,120.63
2023-02-11T05:04:03.135Z,122.32
2023-02-11T05:04:35.441Z,109.45
2023-02-11T05:05:07.908Z,113.80
2023-02-11T05:05:40.914Z,109.95
2023-02-11T05:06:13.641Z,114.65
2023-02-11T05:06:45.967Z,107.93
2023-02-11T05:07:18.308Z,108.32
2023-02-11T05:07:50.775Z,107.75
2023-02-11T05:08:23.437Z,117.03
2023-02-11T05:08:55.727Z,118.55
2023-02-11T05:09:28.444Z,110.30
2023-02-11T05:10:00.756Z,119.80
2023-02-11T05:10:33.339Z,121.63
2023-02-11T05:11:06.334Z,121.78
2023-02-11T05:11:39.628Z,112.65
2023-02-11T05:12:11.932Z,107.50
2023-02-11T05:12:44.191Z,99.40
2023-02-11T05:13:16.585Z,93.15
2023-02-11T05:13:49.507Z,96.88
2023-02-11T05:14:21.951Z,105.70
2023-02-11T05:14:54.298Z,103.80
2023-02-11T05:15:27.183Z,107.07
2023-02-11T05:15:59.516Z,97.97
2023-02-11T05:16:32.067Z,96.70
2023-02-11T05:17:04.398Z,97.75
2023-02-11T05:17:36.683Z,93.90
2023-02-11T05:18:09.038Z,90.47
2023-02-11T05:18:42.180Z,94.95
2023-02-11T05:19:14.873Z,91.57
2023-02-11T05:19:47.172Z,91.03
2023-02-11T05:20:19.768Z,97.55
2023-02-11T05:20:52.206Z,96.25
2023-02-11T05:21:25.000Z,85.70
2023-02-11T05:22:02.999Z,89.53
2023-02-11T05:22:35.823Z,84.00
2023-02-11T05:23:08.525Z,85.28
2023-02-11T05:23:40.985Z,84.80
2023-02-11T05:24:13.288Z,88.15
2023-02-11T05:24:45.564Z,88.40
2023-02-11T05:25:17.926Z,86.97
2023-02-11T05:25:50.527Z,83.03
2023-02-11T05:26:23.390Z,87.07
2023-02-11T05:26:55.762Z,84.57
2023-02-11T05:27:28.470Z,87.07
2023-02-11T05:28:00.821Z,93.95
2023-02-11T05:28:33.859Z,94.50
2023-02-11T05:29:06.325Z,91.97
2023-02-11T05:29:38.833Z,87.78
2023-02-11T05:30:11.700Z,91.18
2023-02-11T05:30:44.034Z,84.60
2023-02-11T05:31:17.182Z,97.57
2023-02-11T05:31:49.500Z,88.30
2023-02-11T05:32:21.803Z,92.53
2023-02-11T05:32:54.588Z,94.97
2023-02-11T05:33:26.969Z,90.22
2023-02-11T05:33:59.332Z,89.63
2023-02-11T05:34:31.683Z,95.88
2023-02-11T05:35:04.149Z,88.65
2023-02-11T05:35:36.466Z,89.75
2023-02-11T05:36:10.753Z,96.63
2023-02-11T05:36:43.266Z,82.82
2023-02-11T05:37:16.148Z,89.55
2023-02-11T05:37:48.636Z,91.43
2023-02-11T05:38:20.937Z,94.32
2023-02-11T05:38:53.213Z,88.60
2023-02-11T05:39:25.444Z,88.95
2023-02-11T05:39:57.787Z,92.13
2023-02-11T05:40:30.287Z,89.28
2023-02-11T05:41:02.791Z,92.63
2023-02-11T05:41:35.171Z,93.72
2023-02-11T05:42:07.551Z,90.07
2023-02-11T05:42:40.149Z,87.18
2023-02-11T05:43:12.481Z,88.00
2023-02-11T05:43:44.975Z,86.65
2023-02-11T05:44:17.506Z,91.72
2023-02-11T05:44:50.761Z,87.28
2023-02-11T05:45:23.119Z,93.13
2023-02-11T05:45:55.691Z,95.10
2023-02-11T05:46:28.089Z,97.05
2023-02-11T05:47:00.418Z,98.47
2023-02-11T05:47:32.715Z,101.15
2023-02-11T05:48:05.152Z,99.85
2023-02-11T05:48:37.536Z,98.55
2023-02-11T05:49:10.216Z,99.88
2023-02-11T05:49:42.507Z,97.40
2023-02-11T05:50:14.865Z,91.20
2023-02-11T05:50:47.189Z,97.97
2023-02-11T05:51:19.624Z,95.10
2023-02-11T05:51:51.916Z,98.03
2023-02-11T05:52:24.247Z,94.50
2023-02-11T05:52:56.703Z,92.82
2023-02-11T05:53:29.208Z,92.53
2023-02-11T05:54:01.964Z,95.68
2023-02-11T05:54:34.229Z,98.70
2023-02-11T05:55:06.648Z,110.57
2023-02-11T05:55:39.048Z,103.70
2023-02-11T05:56:11.893Z,99.97
2023-02-11T05:56:45.011Z,103.07
2023-02-11T05:57:17.908Z,92.28
2023-02-11T05:57:50.239Z,93.43
2023-02-11T05:58:22.674Z,102.95
2023-02-11T05:58:54.976Z,99.65
2023-02-11T05:59:27.329Z,103.72
2023-02-11T05:59:59.624Z,103.97
2023-02-11T06:00:31.937Z,109.40
2023-02-11T06:01:04.384Z,104.00
2023-02-11T06:01:36.685Z,111.38
2023-02-11T06:02:09.414Z,116.75
2023-02-11T06:02:41.814Z,110.18
2023-02-11T06:03:14.426Z,115.18
2023-02-11T06:03:47.135Z,103.97
2023-02-11T06:04:19.528Z,107.75
2023-02-11T06:04:52.635Z,104.40
2023-02-11T06:05:34.508Z,97.85
2023-02-11T06:06:11.818Z,95.57
2023-02-11T06:06:44.189Z,98.20
2023-02-11T06:07:17.627Z,100.93
2023-02-11T06:07:50.085Z,105.15
2023-02-11T06:08:22.560Z,99.15
2023-02-11T06:08:54.900Z,109.60
2023-02-11T06:09:27.678Z,103.40
2023-02-11T06:10:00.024Z,99.80
2023-02-11T06:10:32.815Z,98.05
2023-02-11T06:11:05.150Z,102.60
2023-02-11T06:11:38.481Z,113.93
2023-02-11T06:12:10.925Z,109.97
2023-02-11T06:12:45.338Z,108.15
2023-02-11T06:13:18.992Z,107.65
2023-02-11T06:13:51.428Z,108.38
2023-02-11T06:14:25.111Z,98.22
2023-02-11T06:14:57.592Z,101.95
2023-02-11T06:15:29.898Z,105.95
2023-02-11T06:16:03.096Z,108.85
2023-02-11T06:16:35.644Z,109.25
2023-02-11T06:17:08.100Z,113.95
2023-02-11T06:17:40.625Z,101.43
2023-02-11T06:18:12.916Z,114.15
2023-02-11T06:18:45.242Z,107.90
2023-02-11T06:19:17.582Z,104.18
2023-02-11T06:19:49.916Z,104.57
2023-02-11T06:20:22.376Z,101.65
2023-02-11T06:20:54.630Z,108.43
2023-02-11T06:21:40.014Z,103.03
2023-02-11T06:22:16.087Z,107.57
2023-02-11T06:22:48.425Z,109.38
2023-02-11T06:23:20.963Z,105.93
2023-02-11T06:23:53.478Z,109.55
2023-02-11T06:24:51.098Z,102.20
2023-02-11T06:25:18.617Z,102.20
2023-02-11T06:25:52.057Z,99.63
2023-02-11T06:26:24.935Z,113.18
2023-02-11T06:26:57.474Z,105.70
2023-02-11T06:27:30.298Z,109.35
2023-02-11T06:28:02.766Z,111.30
2023-02-11T06:28:36.356Z,101.32
2023-02-11T06:29:08.786Z,112.57
2023-02-11T06:29:41.097Z,109.47
2023-02-11T06:30:14.449Z,109.68
2023-02-11T06:30:46.795Z,103.50
2023-02-11T06:31:19.781Z,108.82
2023-02-11T06:31:52.396Z,106.47
2023-02-11T06:32:42.931Z,106.70
2023-02-11T06:33:16.160Z,96.13
2023-02-11T06:33:50.366Z,105.97
2023-02-11T06:34:22.696Z,105.15
2023-02-11T06:34:55.283Z,105.55
2023-02-11T06:35:27.654Z,106.90
2023-02-11T06:36:00.156Z,118.22
2023-02-11T06:36:32.654Z,118.30
2023-02-11T06:37:04.998Z,121.13
2023-02-11T06:37:37.424Z,126.85
2023-02-11T06:38:09.922Z,131.23
2023-02-11T06:38:42.800Z,136.30
2023-02-11T06:39:15.344Z,128.20
2023-02-11T06:39:48.069Z,118.13
2023-02-11T06:40:20.839Z,125.30
2023-02-11T06:40:53.299Z,122.00
2023-02-11T06:41:25.987Z,123.93
2023-02-11T06:41:58.325Z,99.80
2023-02-11T06:42:30.695Z,112.47
2023-02-11T06:43:03.108Z,118.05
2023-02-11T06:43:35.516Z,129.23
2023-02-11T06:44:08.274Z,116.50
2023-02-11T06:44:40.716Z,123.13
2023-02-11T06:45:13.584Z,126.65
2023-02-11T06:45:45.952Z,124.82
2023-02-11T06:46:18.466Z,117.65
2023-02-11T06:46:50.884Z,115.25
2023-02-11T06:47:23.281Z,123.20
2023-02-11T06:47:55.727Z,128.00
2023-02-11T06:48:28.133Z,119.95
2023-02-11T06:49:00.489Z,119.10
2023-02-11T06:49:33.025Z,126.93
2023-02-11T06:50:06.257Z,125.38
2023-02-11T06:50:38.599Z,116.03
2023-02-11T06:51:11.644Z,114.45
2023-02-11T06:51:43.945Z,111.72
2023-02-11T06:52:16.256Z,128.27
2023-02-11T06:52:48.714Z,119.35
2023-02-11T06:53:21.212Z,125.75
2023-02-11T06:53:53.593Z,117.38
2023-02-11T06:54:25.934Z,127.18
2023-02-11T06:54:58.282Z,119.20
2023-02-11T06:55:30.717Z,123.57
2023-02-11T06:56:04.586Z,115.90
2023-02-11T06:56:39.461Z,114.78
2023-02-11T06:57:11.818Z,124.50
2023-02-11T06:57:44.189Z,114.85
2023-02-11T06:58:16.640Z,125.32
2023-02-11T06:58:52.011Z,120.32
2023-02-11T06:59:24.344Z,119.90
2023-02-11T06:59:56.694Z,119.07
2023-02-11T07:00:29.805Z,119.65
2023-02-11T07:01:07.158Z,117.70
2023-02-11T07:01:39.428Z,116.50
2023-02-11T07:02:11.916Z,121.88
2023-02-11T07:02:44.432Z,127.13
2023-02-11T07:03:16.870Z,116.72
2023-02-11T07:03:50.026Z,129.23
2023-02-11T07:04:22.893Z,122.40
2023-02-11T07:04:55.502Z,129.32
2023-02-11T07:05:28.009Z,138.75
2023-02-11T07:06:00.493Z,123.55
2023-02-11T07:06:32.918Z,117.85
2023-02-11T07:07:05.349Z,119.57
2023-02-11T07:07:38.311Z,116.00
2023-02-11T07:08:10.753Z,118.68
2023-02-11T07:08:43.606Z,125.32
2023-02-11T07:09:16.018Z,115.13
2023-02-11T07:09:48.419Z,128.38
2023-02-11T07:10:21.154Z,115.30
2023-02-11T07:10:53.482Z,121.30
2023-02-11T07:11:27.022Z,122.13
2023-02-11T07:11:59.329Z,118.50
2023-02-11T07:12:31.860Z,115.15
2023-02-11T07:13:04.220Z,111.10
2023-02-11T07:13:36.565Z,107.10
2023-02-11T07:14:09.050Z,112.85
2023-02-11T07:14:42.867Z,116.40
2023-02-11T07:15:17.368Z,118.68
2023-02-11T07:15:50.509Z,123.32
2023-02-11T07:16:23.606Z,125.85
2023-02-11T07:16:55.971Z,111.32
2023-02-11T07:17:28.306Z,115.38
2023-02-11T07:18:00.765Z,108.72